sensor_id;sensor_type;location;lat;lon;timestamp;pressure;altitude;pressure_sealevel;temperature;humidity
9307;BME280;4691;47.612;7.610;2023-02-12T00:00:59;100431.31;;;-1.44;100.00
9307;BME280;4691;47.612;7.610;2023-02-12T00:03:25;100433.06;;;-1.46;100.00
9307;BME280;4691;47.612;7.610;2023-02-12T00:05:50;100437.47;;;-1.56;100.00
9307;BME280;4691;47.612;7.610;2023-02-12T00:08:15;100423.44;;;-1.55;100.00
9307;BME280;4691;47.612;7.610;2023-02-12T00:10:42;100425.19;;;-1.47;100.00
9307;BME280;4691;47.612;7.610;2023-02-12T00:13:09;100415.53;;;-1.33;100.00
9307;BME280;4691;47.612;7.610;2023-02-12T00:15:40;100408.53;;;-1.42;100.00
9307;BME280;4691;47.612;7.610;2023-02-12T00:18:06;100398.06;;;-1.48;100.00
9307;BME280;4691;47.612;7.610;2023-02-12T00:20:32;100390.22;;;-1.46;100.00
9307;BME280;4691;47.612;7.610;2023-02-12T00:22:57;100396.31;;;-1.46;100.00
9307;BME280;4691;47.612;7.610;2023-02-12T00:25:22;100377.09;;;-1.51;100.00
9307;BME280;4691;47.612;7.610;2023-02-12T00:27:48;100366.56;;;-1.42;100.00
9307;BME280;4691;47.612;7.610;2023-02-12T00:30:13;100367.44;;;-1.43;100.00
9307;BME280;4691;47.612;7.610;2023-02-12T00:32:38;100362.22;;;-1.49;100.00
9307;BME280;4691;47.612;7.610;2023-02-12T00:35:05;100363.03;;;-1.38;100.00
9307;BME280;4691;47.612;7.610;2023-02-12T00:37:30;100363.03;;;-1.38;100.00
9307;BME280;4691;47.612;7.610;2023-02-12T00:39:55;100364.84;;;-1.52;100.00
9307;BME280;4691;47.612;7.610;2023-02-12T00:42:21;100368.41;;;-1.64;100.00
9307;BME280;4691;47.612;7.610;2023-02-12T00:44:46;100352.69;;;-1.71;100.00
9307;BME280;4691;47.612;7.610;2023-02-12T00:47:11;100352.66;;;-1.65;100.00
9307;BME280;4691;47.612;7.610;2023-02-12T00:49:36;100352.72;;;-1.76;100.00
9307;BME280;4691;47.612;7.610;2023-02-12T00:52:03;100340.47;;;-1.76;100.00
9307;BME280;4691;47.612;7.610;2023-02-12T00:54:30;100339.56;;;-1.73;100.00
9307;BME280;4691;47.612;7.610;2023-02-12T00:56:55;100346.59;;;-1.72;100.00
9307;BME280;4691;47.612;7.610;2023-02-12T00:59:22;100343.91;;;-1.67;100.00
9307;BME280;4691;47.612;7.610;2023-02-12T01:01:47;100345.69;;;-1.69;100.00
9307;BME280;4691;47.612;7.610;2023-02-12T01:04:12;100336.91;;;-1.56;100.00
9307;BME280;4691;47.612;7.610;2023-02-12T01:06:38;100332.50;;;-1.56;100.00
9307;BME280;4691;47.612;7.610;2023-02-12T01:09:03;100335.13;;;-1.51;100.00
9307;BME280;4691;47.612;7.610;2023-02-12T01:11:28;100327.22;;;-1.48;100.00
9307;BME280;4691;47.612;7.610;2023-02-12T01:13:53;100329.00;;;-1.51;100.00
9307;BME280;4691;47.612;7.610;2023-02-12T01:16:22;100341.25;;;-1.49;100.00
9307;BME280;4691;47.612;7.610;2023-02-12T01:18:49;100332.47;;;-1.48;100.00
9307;BME280;4691;47.612;7.610;2023-02-12T01:21:16;100330.75;;;-1.49;100.00
9307;BME280;4691;47.612;7.610;2023-02-12T01:23:42;100326.34;;;-1.47;100.00
9307;BME280;4691;47.612;7.610;2023-02-12T01:26:08;100336.84;;;-1.44;100.00
9307;BME280;4691;47.612;7.610;2023-02-12T01:28:38;100327.97;;;-1.26;100.00
9307;BME280;4691;47.612;7.610;2023-02-12T01:31:15;100345.53;;;-1.33;100.00
9307;BME280;4691;47.612;7.610;2023-02-12T01:33:42;100348.25;;;-1.51;100.00
9307;BME280;4691;47.612;7.610;2023-02-12T01:36:09;100364.91;;;-1.61;100.00
9307;BME280;4691;47.612;7.610;2023-02-12T01:38:35;100354.44;;;-1.64;100.00
9307;BME280;4691;47.612;7.610;2023-02-12T01:41:05;100340.38;;;-1.57;100.00
9307;BME280;4691;47.612;7.610;2023-02-12T01:43:30;100343.97;;;-1.77;100.00
9307;BME280;4691;47.612;7.610;2023-02-12T01:45:59;100332.59;;;-1.79;100.00
9307;BME280;4691;47.612;7.610;2023-02-12T01:48:26;100336.16;;;-1.97;100.00
9307;BME280;4691;47.612;7.610;2023-02-12T01:50:53;100329.16;;;-1.94;100.00
9307;BME280;4691;47.612;7.610;2023-02-12T01:53:21;100330.06;;;-1.97;100.00
9307;BME280;4691;47.612;7.610;2023-02-12T01:55:49;100329.22;;;-2.05;100.00
9307;BME280;4691;47.612;7.610;2023-02-12T01:58:16;100303.84;;;-2.06;100.00
9307;BME280;4691;47.612;7.610;2023-02-12T02:00:41;100302.13;;;-2.07;100.00
9307;BME280;4691;47.612;7.610;2023-02-12T02:03:07;100288.13;;;-2.06;100.00
9307;BME280;4691;47.612;7.610;2023-02-12T02:05:42;100276.78;;;-2.16;100.00
9307;BME280;4691;47.612;7.610;2023-02-12T02:08:09;100245.34;;;-2.14;100.00
9307;BME280;4691;47.612;7.610;2023-02-12T02:10:35;100240.94;;;-2.09;100.00
9307;BME280;4691;47.612;7.610;2023-02-12T02:13:01;100240.06;;;-2.07;100.00
9307;BME280;4691;47.612;7.610;2023-02-12T02:15:47;100238.31;;;-2.11;100.00
9307;BME280;4691;47.612;7.610;2023-02-12T02:18:31;100233.97;;;-2.10;100.00
9307;BME280;4691;47.612;7.610;2023-02-12T02:23:49;100226.09;;;-2.07;100.00
9307;BME280;4691;47.612;7.610;2023-02-12T02:26:56;100219.16;;;-2.21;100.00
9307;BME280;4691;47.612;7.610;2023-02-12T02:32:23;100205.97;;;-2.08;100.00
9307;BME280;4691;47.612;7.610;2023-02-12T02:35:14;100203.38;;;-2.10;100.00
9307;BME280;4691;47.612;7.610;2023-02-12T02:38:02;100201.63;;;-2.08;100.00
9307;BME280;4691;47.612;7.610;2023-02-12T02:40:36;100204.28;;;-2.19;100.00
9307;BME280;4691;47.612;7.610;2023-02-12T02:43:13;100190.19;;;-1.96;100.00
9307;BME280;4691;47.612;7.610;2023-02-12T02:45:50;100188.47;;;-2.03;100.00
9307;BME280;4691;47.612;7.610;2023-02-12T02:48:21;100185.06;;;-2.17;100.00
9307;BME280;4691;47.612;7.610;2023-02-12T02:50:55;100188.50;;;-2.06;100.00
9307;BME280;4691;47.612;7.610;2023-02-12T02:53:32;100177.19;;;-2.19;100.00
9307;BME280;4691;47.612;7.610;2023-02-12T02:56:01;100170.25;;;-2.29;100.00
9307;BME280;4691;47.612;7.610;2023-02-12T02:58:34;100183.44;;;-2.43;100.00
9307;BME280;4691;47.612;7.610;2023-02-12T03:01:08;100172.91;;;-2.42;100.00
9307;BME280;4691;47.612;7.610;2023-02-12T03:03:51;100162.47;;;-2.43;100.00
9307;BME280;4691;47.612;7.610;2023-02-12T03:06:37;100171.16;;;-2.35;100.00
9307;BME280;4691;47.612;7.610;2023-02-12T03:12:15;100157.22;;;-2.43;100.00
9307;BME280;4691;47.612;7.610;2023-02-12T03:14:52;100146.72;;;-2.40;100.00
9307;BME280;4691;47.612;7.610;2023-02-12T03:19:44;100117.91;;;-2.40;100.00
9307;BME280;4691;47.612;7.610;2023-02-12T03:22:18;100122.28;;;-2.42;100.00
9307;BME280;4691;47.612;7.610;2023-02-12T03:24:55;100111.84;;;-2.54;100.00
9307;BME280;4691;47.612;7.610;2023-02-12T03:27:29;100103.16;;;-2.56;100.00
9307;BME280;4691;47.612;7.610;2023-02-12T03:29:55;100090.09;;;-2.64;100.00
9307;BME280;4691;47.612;7.610;2023-02-12T03:35:15;100077.81;;;-2.56;100.00
9307;BME280;4691;47.612;7.610;2023-02-12T03:37:55;100068.25;;;-2.63;100.00
9307;BME280;4691;47.612;7.610;2023-02-12T03:43:01;100071.72;;;-2.59;100.00
9307;BME280;4691;47.612;7.610;2023-02-12T03:53:28;100083.09;;;-2.67;100.00
9307;BME280;4691;47.612;7.610;2023-02-12T03:55:59;100085.75;;;-2.70;100.00
9307;BME280;4691;47.612;7.610;2023-02-12T03:58:27;100082.19;;;-2.63;100.00
9307;BME280;4691;47.612;7.610;2023-02-12T04:00:53;100089.22;;;-2.71;100.00
9307;BME280;4691;47.612;7.610;2023-02-12T04:03:19;100096.19;;;-2.62;100.00
9307;BME280;4691;47.612;7.610;2023-02-12T04:05:45;100103.22;;;-2.75;100.00
9307;BME280;4691;47.612;7.610;2023-02-12T04:08:11;100104.97;;;-2.77;100.00
9307;BME280;4691;47.612;7.610;2023-02-12T04:16:34;100118.09;;;-2.85;100.00
9307;BME280;4691;47.612;7.610;2023-02-12T04:19:04;100111.09;;;-2.86;100.00
9307;BME280;4691;47.612;7.610;2023-02-12T04:22:11;100113.72;;;-2.93;100.00
9307;BME280;4691;47.612;7.610;2023-02-12T04:25:03;100118.13;;;-3.04;100.00
9307;BME280;4691;47.612;7.610;2023-02-12T04:30:17;100121.56;;;-2.81;100.00
9307;BME280;4691;47.612;7.610;2023-02-12T04:32:53;100123.31;;;-2.77;100.00
9307;BME280;4691;47.612;7.610;2023-02-12T04:35:22;100120.69;;;-2.83;100.00
9307;BME280;4691;47.612;7.610;2023-02-12T04:40:18;100119.81;;;-2.83;100.00
9307;BME280;4691;47.612;7.610;2023-02-12T04:42:48;100125.94;;;-2.86;100.00
9307;BME280;4691;47.612;7.610;2023-02-12T04:45:16;100125.06;;;-2.82;100.00
9307;BME280;4691;47.612;7.610;2023-02-12T04:47:45;100127.69;;;-2.85;100.00
9307;BME280;4691;47.612;7.610;2023-02-12T04:50:11;100111.97;;;-2.82;100.00
9307;BME280;4691;47.612;7.610;2023-02-12T04:52:36;100114.59;;;-2.85;100.00
9307;BME280;4691;47.612;7.610;2023-02-12T04:55:02;100118.09;;;-2.89;100.00
9307;BME280;4691;47.612;7.610;2023-02-12T04:57:27;100116.34;;;-2.84;100.00
9307;BME280;4691;47.612;7.610;2023-02-12T04:59:53;100115.47;;;-2.89;100.00
9307;BME280;4691;47.612;7.610;2023-02-12T05:02:18;100105.88;;;-3.01;100.00
9307;BME280;4691;47.612;7.610;2023-02-12T05:04:44;100105.00;;;-2.98;100.00
9307;BME280;4691;47.612;7.610;2023-02-12T05:07:10;100088.44;;;-2.96;100.00
9307;BME280;4691;47.612;7.610;2023-02-12T05:09:36;100075.38;;;-2.97;100.00
9307;BME280;4691;47.612;7.610;2023-02-12T05:12:01;100065.72;;;-2.89;100.00
9307;BME280;4691;47.612;7.610;2023-02-12T05:14:27;100070.97;;;-2.89;100.00
9307;BME280;4691;47.612;7.610;2023-02-12T05:16:52;100070.16;;;-3.00;100.00
9307;BME280;4691;47.612;7.610;2023-02-12T05:19:18;100053.53;;;-3.01;100.00
9307;BME280;4691;47.612;7.610;2023-02-12T05:21:43;100057.06;;;-3.11;100.00
9307;BME280;4691;47.612;7.610;2023-02-12T05:24:08;100054.50;;;-3.16;100.00
9307;BME280;4691;47.612;7.610;2023-02-12T05:26:34;100050.97;;;-3.15;100.00
9307;BME280;4691;47.612;7.610;2023-02-12T05:29:00;100047.44;;;-2.95;100.00
9307;BME280;4691;47.612;7.610;2023-02-12T05:31:25;100044.84;;;-3.04;100.00
9307;BME280;4691;47.612;7.610;2023-02-12T05:33:51;100054.50;;;-3.16;100.00
9307;BME280;4691;47.612;7.610;2023-02-12T05:36:19;100051.00;;;-3.24;100.00
9307;BME280;4691;47.612;7.610;2023-02-12T05:38:45;100051.00;;;-3.25;100.00
9307;BME280;4691;47.612;7.610;2023-02-12T05:41:16;100049.22;;;-3.19;100.00
9307;BME280;4691;47.612;7.610;2023-02-12T05:43:42;100030.03;;;-3.05;100.00
9307;BME280;4691;47.612;7.610;2023-02-12T05:46:08;100030.00;;;-3.02;100.00
9307;BME280;4691;47.612;7.610;2023-02-12T05:48:34;100039.66;;;-3.17;100.00
9307;BME280;4691;47.612;7.610;2023-02-12T05:51:02;100030.94;;;-3.16;100.00
9307;BME280;4691;47.612;7.610;2023-02-12T05:53:28;100022.22;;;-3.18;100.00
9307;BME280;4691;47.612;7.610;2023-02-12T05:56:17;100035.28;;;-3.15;100.00
9307;BME280;4691;47.612;7.610;2023-02-12T05:58:51;100046.66;;;-3.23;100.00
9307;BME280;4691;47.612;7.610;2023-02-12T06:01:25;100047.53;;;-3.35;100.00
9307;BME280;4691;47.612;7.610;2023-02-12T06:03:51;100051.03;;;-3.39;100.00
9307;BME280;4691;47.612;7.610;2023-02-12T06:06:17;100044.06;;;-3.31;100.00
9307;BME280;4691;47.612;7.610;2023-02-12T06:08:43;100040.56;;;-3.35;100.00
9307;BME280;4691;47.612;7.610;2023-02-12T06:11:12;100030.09;;;-3.30;100.00
9307;BME280;4691;47.612;7.610;2023-02-12T06:13:37;100038.81;;;-3.37;100.00
9307;BME280;4691;47.612;7.610;2023-02-12T06:16:03;100031.84;;;-3.34;100.00
9307;BME280;4691;47.612;7.610;2023-02-12T06:18:29;100030.13;;;-3.36;100.00
9307;BME280;4691;47.612;7.610;2023-02-12T06:20:54;100034.44;;;-3.29;100.00
9307;BME280;4691;47.612;7.610;2023-02-12T06:23:21;100040.53;;;-3.21;100.00
9307;BME280;4691;47.612;7.610;2023-02-12T06:25:47;100044.00;;;-3.22;100.00
9307;BME280;4691;47.612;7.610;2023-02-12T06:28:13;100041.38;;;-3.14;100.00
9307;BME280;4691;47.612;7.610;2023-02-12T06:30:38;100043.13;;;-3.15;100.00
9307;BME280;4691;47.612;7.610;2023-02-12T06:33:03;100046.63;;;-3.22;100.00
9307;BME280;4691;47.612;7.610;2023-02-12T06:35:29;100050.13;;;-3.23;100.00
9307;BME280;4691;47.612;7.610;2023-02-12T06:37:54;100050.13;;;-3.20;100.00
9307;BME280;4691;47.612;7.610;2023-02-12T06:40:20;100050.97;;;-3.15;100.00
9307;BME280;4691;47.612;7.610;2023-02-12T06:42:45;100052.72;;;-3.14;100.00
9307;BME280;4691;47.612;7.610;2023-02-12T06:45:10;100049.22;;;-3.10;100.00
9307;BME280;4691;47.612;7.610;2023-02-12T06:47:36;100051.84;;;-3.08;100.00
9307;BME280;4691;47.612;7.610;2023-02-12T06:50:01;100043.97;;;-3.00;100.00
9307;BME280;4691;47.612;7.610;2023-02-12T06:52:27;100040.47;;;-2.99;100.00
9307;BME280;4691;47.612;7.610;2023-02-12T06:54:53;100043.09;;;-2.99;100.00
9307;BME280;4691;47.612;7.610;2023-02-12T06:57:18;100050.91;;;-2.92;100.00
9307;BME280;4691;47.612;7.610;2023-02-12T06:59:44;100057.91;;;-2.92;100.00
9307;BME280;4691;47.612;7.610;2023-02-12T07:02:10;100050.91;;;-2.90;100.00
9307;BME280;4691;47.612;7.610;2023-02-12T07:04:37;100046.53;;;-2.88;100.00
9307;BME280;4691;47.612;7.610;2023-02-12T07:07:03;100053.44;;;-2.73;100.00
9307;BME280;4691;47.612;7.610;2023-02-12T07:09:29;100061.28;;;-2.69;100.00
9307;BME280;4691;47.612;7.610;2023-02-12T07:11:57;100073.50;;;-2.71;100.00
9307;BME280;4691;47.612;7.610;2023-02-12T07:14:22;100081.41;;;-2.72;100.00
9307;BME280;4691;47.612;7.610;2023-02-12T07:16:47;100087.44;;;-2.63;100.00
9307;BME280;4691;47.612;7.610;2023-02-12T07:19:13;100106.66;;;-2.60;100.00
9307;BME280;4691;47.612;7.610;2023-02-12T07:21:38;100138.94;;;-2.54;100.00
9307;BME280;4691;47.612;7.610;2023-02-12T07:24:04;100155.47;;;-2.44;100.00
9307;BME280;4691;47.612;7.610;2023-02-12T07:26:29;100177.28;;;-2.34;100.00
9307;BME280;4691;47.612;7.610;2023-02-12T07:28:55;100197.34;;;-2.32;100.00
9307;BME280;4691;47.612;7.610;2023-02-12T07:31:22;100220.88;;;-2.10;100.00
9307;BME280;4691;47.612;7.610;2023-02-12T07:33:48;100240.94;;;-2.00;100.00
9307;BME280;4691;47.612;7.610;2023-02-12T07:36:18;100259.25;;;-2.03;100.00
9307;BME280;4691;47.612;7.610;2023-02-12T07:38:43;100279.34;;;-1.94;100.00
9307;BME280;4691;47.612;7.610;2023-02-12T07:41:18;100295.84;;;-1.68;100.00
9307;BME280;4691;47.612;7.610;2023-02-12T07:43:45;100309.84;;;-1.75;100.00
9307;BME280;4691;47.612;7.610;2023-02-12T07:46:18;100326.44;;;-1.68;100.00
9307;BME280;4691;47.612;7.610;2023-02-12T07:48:44;100342.13;;;-1.55;100.00
9307;BME280;4691;47.612;7.610;2023-02-12T07:51:15;100352.56;;;-1.41;100.00
9307;BME280;4691;47.612;7.610;2023-02-12T07:53:43;100369.13;;;-1.28;100.00
9307;BME280;4691;47.612;7.610;2023-02-12T07:56:18;100386.63;;;-1.30;100.00
9307;BME280;4691;47.612;7.610;2023-02-12T07:58:45;100393.47;;;-1.00;100.00
9307;BME280;4691;47.612;7.610;2023-02-12T08:01:32;100416.19;;;-0.94;100.00
9307;BME280;4691;47.612;7.610;2023-02-12T08:04:00;100428.44;;;-0.93;100.00
9307;BME280;4691;47.612;7.610;2023-02-12T08:06:28;100437.16;;;-0.85;100.00
9307;BME280;4691;47.612;7.610;2023-02-12T08:08:56;100451.13;;;-0.77;100.00
9307;BME280;4691;47.612;7.610;2023-02-12T08:11:22;100458.16;;;-0.85;100.00
9307;BME280;4691;47.612;7.610;2023-02-12T08:13:48;100464.28;;;-0.81;100.00
9307;BME280;4691;47.612;7.610;2023-02-12T08:16:24;100479.91;;;-0.60;100.00
9307;BME280;4691;47.612;7.610;2023-02-12T08:18:51;100486.03;;;-0.53;100.00
9307;BME280;4691;47.612;7.610;2023-02-12T08:21:25;100501.56;;;-0.19;100.00
9307;BME280;4691;47.612;7.610;2023-02-12T08:23:53;100508.63;;;-0.23;100.00
9307;BME280;4691;47.612;7.610;2023-02-12T08:26:28;100519.16;;;-0.29;100.00
9307;BME280;4691;47.612;7.610;2023-02-12T08:29:02;100527.00;;;-0.20;100.00
9307;BME280;4691;47.612;7.610;2023-02-12T08:31:33;100536.53;;;-0.07;100.00
9307;BME280;4691;47.612;7.610;2023-02-12T08:34:00;100549.63;;;-0.01;100.00
9307;BME280;4691;47.612;7.610;2023-02-12T08:36:27;100544.34;;;0.04;100.00
9307;BME280;4691;47.612;7.610;2023-02-12T08:38:56;100556.56;;;0.10;100.00
9307;BME280;4691;47.612;7.610;2023-02-12T08:41:25;100573.28;;;0.03;100.00
9307;BME280;4691;47.612;7.610;2023-02-12T08:43:53;100589.72;;;0.32;100.00
9307;BME280;4691;47.612;7.610;2023-02-12T08:46:21;100588.94;;;0.21;100.00
9307;BME280;4691;47.612;7.610;2023-02-12T08:48:47;100584.38;;;0.45;100.00
9307;BME280;4691;47.612;7.610;2023-02-12T08:51:17;100594.75;;;0.63;100.00
9307;BME280;4691;47.612;7.610;2023-02-12T08:53:45;100600.72;;;0.80;100.00
9307;BME280;4691;47.612;7.610;2023-02-12T08:56:13;100604.22;;;0.82;100.00
9307;BME280;4691;47.612;7.610;2023-02-12T08:58:39;100610.31;;;0.88;100.00
9307;BME280;4691;47.612;7.610;2023-02-12T09:01:09;100609.50;;;0.82;100.00
9307;BME280;4691;47.612;7.610;2023-02-12T09:03:35;100618.31;;;0.78;100.00
9307;BME280;4691;47.612;7.610;2023-02-12T09:06:02;100614.47;;;1.10;100.00
9307;BME280;4691;47.612;7.610;2023-02-12T09:08:27;100625.59;;;1.37;100.00
9307;BME280;4691;47.612;7.610;2023-02-12T09:10:53;100621.28;;;1.28;100.00
9307;BME280;4691;47.612;7.610;2023-02-12T09:13:18;100632.50;;;1.47;100.00
9307;BME280;4691;47.612;7.610;2023-02-12T09:15:44;100641.41;;;1.37;100.00
9307;BME280;4691;47.612;7.610;2023-02-12T09:18:10;100653.38;;;1.65;100.00
9307;BME280;4691;47.612;7.610;2023-02-12T09:20:37;100659.53;;;1.67;100.00
9307;BME280;4691;47.612;7.610;2023-02-12T09:23:07;100655.19;;;1.60;100.00
9307;BME280;4691;47.612;7.610;2023-02-12T09:25:32;100663.69;;;1.84;100.00
9307;BME280;4691;47.612;7.610;2023-02-12T09:27:59;100665.97;;;2.10;100.00
9307;BME280;4691;47.612;7.610;2023-02-12T09:30:24;100660.47;;;2.27;100.00
9307;BME280;4691;47.612;7.610;2023-02-12T09:32:50;100676.72;;;2.56;100.00
9307;BME280;4691;47.612;7.610;2023-02-12T09:35:15;100674.19;;;2.50;100.00
9307;BME280;4691;47.612;7.610;2023-02-12T09:37:42;100672.84;;;2.79;100.00
9307;BME280;4691;47.612;7.610;2023-02-12T09:40:15;100675.22;;;2.96;100.00
9307;BME280;4691;47.612;7.610;2023-02-12T09:45:29;100676.41;;;3.27;100.00
9307;BME280;4691;47.612;7.610;2023-02-12T09:50:52;100689.06;;;3.57;100.00
9307;BME280;4691;47.612;7.610;2023-02-12T09:53:22;100674.75;;;3.67;100.00
9307;BME280;4691;47.612;7.610;2023-02-12T09:55:49;100681.38;;;4.30;100.00
9307;BME280;4691;47.612;7.610;2023-02-12T09:58:39;100685.22;;;4.54;100.00
9307;BME280;4691;47.612;7.610;2023-02-12T10:01:10;100683.59;;;4.86;100.00
9307;BME280;4691;47.612;7.610;2023-02-12T10:03:36;100688.63;;;5.31;100.00
9307;BME280;4691;47.612;7.610;2023-02-12T10:06:04;100690.09;;;5.41;100.00
9307;BME280;4691;47.612;7.610;2023-02-12T10:11:39;100683.31;;;5.93;100.00
9307;BME280;4691;47.612;7.610;2023-02-12T10:17:32;100669.22;;;9.55;100.00
9307;BME280;4691;47.612;7.610;2023-02-12T10:23:24;100620.44;;;12.80;100.00
9307;BME280;4691;47.612;7.610;2023-02-12T10:25:58;100560.63;;;15.29;100.00
9307;BME280;4691;47.612;7.610;2023-02-12T10:28:27;100558.44;;;15.08;100.00
9307;BME280;4691;47.612;7.610;2023-02-12T10:31:23;100612.03;;;12.71;100.00
9307;BME280;4691;47.612;7.610;2023-02-12T10:33:51;100600.53;;;13.43;100.00
9307;BME280;4691;47.612;7.610;2023-02-12T10:36:26;100562.09;;;14.13;100.00
9307;BME280;4691;47.612;7.610;2023-02-12T10:39:05;100574.97;;;14.76;100.00
9307;BME280;4691;47.612;7.610;2023-02-12T10:44:25;100582.72;;;13.85;100.00
9307;BME280;4691;47.612;7.610;2023-02-12T10:46:50;100554.75;;;14.29;100.00
9307;BME280;4691;47.612;7.610;2023-02-12T10:49:17;100571.94;;;13.28;100.00
9307;BME280;4691;47.612;7.610;2023-02-12T10:54:36;100512.25;;;16.38;100.00
9307;BME280;4691;47.612;7.610;2023-02-12T10:57:21;100539.81;;;14.65;100.00
9307;BME280;4691;47.612;7.610;2023-02-12T10:59:50;100529.59;;;14.70;100.00
9307;BME280;4691;47.612;7.610;2023-02-12T11:02:25;100564.25;;;12.92;100.00
9307;BME280;4691;47.612;7.610;2023-02-12T11:04:51;100505.97;;;16.13;100.00
9307;BME280;4691;47.612;7.610;2023-02-12T11:07:18;100528.66;;;14.97;100.00
9307;BME280;4691;47.612;7.610;2023-02-12T11:09:45;100484.19;;;16.51;100.00
9307;BME280;4691;47.612;7.610;2023-02-12T11:12:33;100497.66;;;15.92;100.00
9307;BME280;4691;47.612;7.610;2023-02-12T11:15:17;100524.53;;;14.66;100.00
9307;BME280;4691;47.612;7.610;2023-02-12T11:18:03;100504.88;;;15.92;100.00
9307;BME280;4691;47.612;7.610;2023-02-12T11:20:38;100489.78;;;16.37;100.00
9307;BME280;4691;47.612;7.610;2023-02-12T11:23:20;100469.34;;;15.74;100.00
9307;BME280;4691;47.612;7.610;2023-02-12T11:26:00;100467.44;;;16.35;100.00
9307;BME280;4691;47.612;7.610;2023-02-12T11:28:27;100450.06;;;15.91;100.00
9307;BME280;4691;47.612;7.610;2023-02-12T11:30:53;100426.72;;;19.02;100.00
9307;BME280;4691;47.612;7.610;2023-02-12T11:35:54;100438.91;;;17.47;100.00
9307;BME280;4691;47.612;7.610;2023-02-12T11:38:24;100420.22;;;17.21;100.00
9307;BME280;4691;47.612;7.610;2023-02-12T11:40:54;100400.56;;;18.28;100.00
9307;BME280;4691;47.612;7.610;2023-02-12T11:43:20;100384.75;;;18.97;100.00
9307;BME280;4691;47.612;7.610;2023-02-12T11:45:48;100439.53;;;16.59;100.00
9307;BME280;4691;47.612;7.610;2023-02-12T11:48:21;100414.06;;;17.41;100.00
9307;BME280;4691;47.612;7.610;2023-02-12T11:50:49;100394.34;;;17.84;100.00
9307;BME280;4691;47.612;7.610;2023-02-12T11:53:21;100402.31;;;17.75;100.00
9307;BME280;4691;47.612;7.610;2023-02-12T11:55:56;100362.16;;;20.35;100.00
9307;BME280;4691;47.612;7.610;2023-02-12T11:58:24;100381.31;;;18.95;100.00
9307;BME280;4691;47.612;7.610;2023-02-12T12:01:10;100342.56;;;20.32;100.00
9307;BME280;4691;47.612;7.610;2023-02-12T12:09:16;100379.34;;;18.55;100.00
9307;BME280;4691;47.612;7.610;2023-02-12T12:12:17;100350.78;;;19.33;100.00
9307;BME280;4691;47.612;7.610;2023-02-12T12:14:58;100318.28;;;20.30;100.00
9307;BME280;4691;47.612;7.610;2023-02-12T12:17:50;100332.16;;;20.08;100.00
9307;BME280;4691;47.612;7.610;2023-02-12T12:20:41;100349.75;;;19.14;100.00
9307;BME280;4691;47.612;7.610;2023-02-12T12:23:15;100339.13;;;19.02;100.00
9307;BME280;4691;47.612;7.610;2023-02-12T12:25:46;100316.56;;;19.51;100.00
9307;BME280;4691;47.612;7.610;2023-02-12T12:28:39;100360.28;;;17.27;100.00
9307;BME280;4691;47.612;7.610;2023-02-12T12:31:12;100310.16;;;19.52;100.00
9307;BME280;4691;47.612;7.610;2023-02-12T12:33:51;100328.06;;;18.11;100.00
9307;BME280;4691;47.612;7.610;2023-02-12T12:36:28;100353.13;;;16.59;100.00
9307;BME280;4691;47.612;7.610;2023-02-12T12:39:19;100332.22;;;18.67;100.00
9307;BME280;4691;47.612;7.610;2023-02-12T12:47:44;100312.19;;;17.86;100.00
9307;BME280;4691;47.612;7.610;2023-02-12T12:55:45;100337.22;;;17.55;100.00
9307;BME280;4691;47.612;7.610;2023-02-12T13:01:27;100309.38;;;18.60;100.00
9307;BME280;4691;47.612;7.610;2023-02-12T13:07:01;100312.13;;;18.69;100.00
9307;BME280;4691;47.612;7.610;2023-02-12T13:20:28;100289.28;;;18.83;100.00
9307;BME280;4691;47.612;7.610;2023-02-12T13:23:03;100284.66;;;18.22;100.00
9307;BME280;4691;47.612;7.610;2023-02-12T13:25:53;100274.72;;;18.54;100.00
9307;BME280;4691;47.612;7.610;2023-02-12T13:28:33;100258.97;;;18.38;100.00
9307;BME280;4691;47.612;7.610;2023-02-12T13:31:02;100222.50;;;21.57;100.00
9307;BME280;4691;47.612;7.610;2023-02-12T13:33:39;100259.44;;;18.22;100.00
9307;BME280;4691;47.612;7.610;2023-02-12T13:36:09;100279.25;;;17.69;100.00
9307;BME280;4691;47.612;7.610;2023-02-12T13:38:41;100212.81;;;20.63;100.00
9307;BME280;4691;47.612;7.610;2023-02-12T13:41:09;100236.31;;;20.54;100.00
9307;BME280;4691;47.612;7.610;2023-02-12T13:43:42;100210.16;;;20.99;100.00
9307;BME280;4691;47.612;7.610;2023-02-12T13:46:24;100259.84;;;19.19;100.00
9307;BME280;4691;47.612;7.610;2023-02-12T13:51:49;100257.28;;;19.27;100.00
9307;BME280;4691;47.612;7.610;2023-02-12T13:56:56;100284.47;;;18.14;100.00
9307;BME280;4691;47.612;7.610;2023-02-12T14:04:30;100232.44;;;19.90;100.00
9307;BME280;4691;47.612;7.610;2023-02-12T14:07:02;100211.59;;;21.21;100.00
9307;BME280;4691;47.612;7.610;2023-02-12T14:09:37;100259.75;;;18.28;100.00
9307;BME280;4691;47.612;7.610;2023-02-12T14:12:11;100248.84;;;20.18;100.00
9307;BME280;4691;47.612;7.610;2023-02-12T14:14:41;100212.16;;;21.60;100.00
9307;BME280;4691;47.612;7.610;2023-02-12T14:20:23;100253.72;;;19.46;100.00
9307;BME280;4691;47.612;7.610;2023-02-12T14:35:36;100250.72;;;19.30;100.00
9307;BME280;4691;47.612;7.610;2023-02-12T14:43:00;100292.13;;;17.88;100.00
9307;BME280;4691;47.612;7.610;2023-02-12T14:45:29;100318.47;;;17.31;100.00
9307;BME280;4691;47.612;7.610;2023-02-12T14:47:55;100295.59;;;19.03;100.00
9307;BME280;4691;47.612;7.610;2023-02-12T14:50:24;100270.75;;;18.58;100.00
9307;BME280;4691;47.612;7.610;2023-02-12T14:53:05;100278.66;;;19.01;100.00
9307;BME280;4691;47.612;7.610;2023-02-12T14:55:33;100266.00;;;18.50;100.00
9307;BME280;4691;47.612;7.610;2023-02-12T14:58:02;100284.56;;;18.34;100.00
9307;BME280;4691;47.612;7.610;2023-02-12T15:00:35;100299.19;;;17.68;100.00
9307;BME280;4691;47.612;7.610;2023-02-12T15:05:42;100304.56;;;17.91;100.00
9307;BME280;4691;47.612;7.610;2023-02-12T15:08:23;100268.66;;;19.21;100.00
9307;BME280;4691;47.612;7.610;2023-02-12T15:10:54;100288.34;;;17.79;100.00
9307;BME280;4691;47.612;7.610;2023-02-12T15:13:28;100353.28;;;15.62;100.00
9307;BME280;4691;47.612;7.610;2023-02-12T15:19:01;100295.97;;;18.27;100.00
9307;BME280;4691;47.612;7.610;2023-02-12T15:21:31;100346.22;;;16.32;100.00
9307;BME280;4691;47.612;7.610;2023-02-12T15:24:05;100321.44;;;17.28;100.00
9307;BME280;4691;47.612;7.610;2023-02-12T15:26:33;100329.47;;;16.16;100.00
9307;BME280;4691;47.612;7.610;2023-02-12T15:29:01;100448.88;;;11.69;100.00